Geneva, Minnesota
Current Conditions -  °F | °C
As of 11:35 PM on Thursday 30 Oct 2014 (Local Time) from KAEL Reporting Station
Overcast Overcast  
Wind Chill: 27°   Ceiling: 4400
Heat Index: 37°   Visibility: 10mi
Dew Point: 21°   Wind: 20mph
Humidity: 52%   Direction: 340°NNW
Pressure: 30.28"   Gusts: 26mph
Location:  43.82°N, 93.27°W
Report Text: KAEL 310435Z AUTO 34017G23KT 10SM OVC044 03/M06 A3028 RMK AO2
Loading
Personal Weather Stations






























Interactive Weather Map
Tropical Storm Tracking
New forecast layout! Learn more

10-Day Weather Forecast

Advertisements
Track Severe Weather on mobile